Airfield :
LOGIN :

Register | Disclaimer

   EN    FR    IT 

 










Legend :    VFR   Marginal VFR   IFR   Intensive IFR   Very Intensive IFR
Visi :
Ceiling :
>= 8 km
>= 3000ft
5 to 8 km
1000 to 3000 ft
1500m to 5 km
500 to 1000 ft
800 to 1500m
200 to 500 ft
< 800m
< 200 ft
Symbols :   Thunderstorms  Fog  Heavy snow  Heavy precipitations  Wind > 20 kt
SIGMETs :     Misc.  Thunderstorms  Icing  Turbulence  Mountain Waves  Volcanic Ashes







- Airport Elevation : 203 ft
- IATA code : XMJ
- Download approach charts


LFBM - Mont-De-Marsan

CURRENT METAR :
  • 222000Z AUTO 00000KT CAVOK 15/14 Q1017 BECMG 25010KT

EXPIRED METARs :
  • 221930Z AUTO 00000KT CAVOK 16/14 Q1017 BECMG 25010KT
  • 221900Z AUTO 00000KT CAVOK 16/14 Q1016 TEMPO 4000 SHRA SCT010 BKN030TCU BECMG 25010KT
  • 221830Z AUTO 00000KT CAVOK 17/14 Q1016 TEMPO 4000 SHRA SCT010 BKN030TCU BECMG 25010KT
  • 221800Z AUTO 32002KT CAVOK 19/14 Q1016 TEMPO 4000 SHRA SCT010 BKN030TCU BECMG 25010KT
  • 221730Z AUTO 33003KT 290V350 CAVOK 20/14 Q1016 TEMPO 4000 SHRA SCT010 BKN030TCU

TAF TAF LFBM
Valid from the 22 at 15:00 until the 23 at 15:00 UTC


221400Z 2215/2315 25010KT 9999 BKN020
TEMPO 2215/2220 4000 SHRA SCT010 BKN030TCU
No reported NOTAMs for that airfield.



MET'MAP, your aeronautical weather chart ! - Copyright ORBIFLY December 2007 - Disclaimer

ORBIFLY MET'MAP TEAM :

Programming & Development : Alexandra Zaïnal
Concept & Development : Baudouin d'Aumeries
Co-Development & Prog : Marc-Olivier Méhu
Technical & hardware support : Manuel Goepfert

Contact : metmap@orbifly.com




SOURCES & CREDITS :

   NOAA